Nation Prosperity II — BNCY — position and weather

sailwx.info

Track history (hours):
 
Tides and Currents Weather Stations Pressure Air Temp Water Temp Dewpoint Dewpoint Depression Visibility Wind Speed Wind Dir Waves Ship Positions

Nation Prosperity II

Last reported at 2018-Jul-15 17:06 UTC. Time now 2018-Jul-20 16:41 UTC.
Position N 22°14' E 120°24'.

Length 97 m; draft 7.7 m.

Type: Ship. MMSI: 416424000.

Date/timePositionNaut miles runAvg speedWind from/ knotsBaromVisibWave heightAir tempDewpointWater temp
2018-Jul-15 17:06N 22°14' E 120°24'211.7
2018-Jul-15 16:53N 22°16' E 120°22'411.7
2018-Jul-15 16:30N 22°19' E 120°19'611.1
2018-Jul-15 16:00N 22°24' E 120°16'611.2
2018-Jul-15 15:30N 22°29' E 120°13'5 9.4
2018-Jul-15 14:59N 22°34' E 120°12'4 9.0
2018-Jul-15 14:30N 22°38' E 120°13'4 8.5
2018-Jul-15 14:00N 22°36' E 120°17'1 1.5
2018-Jul-15 13:29N 22°36' E 120°17'0 0.0
2018-Jul-15 13:00N 22°36' E 120°17'0 0.0
2018-Jul-15 12:30N 22°36' E 120°17'0 0.0
2018-Jul-15 12:00N 22°36' E 120°17'0 0.0
2018-Jul-15 11:30N 22°36' E 120°17'0 0.0
2018-Jul-15 10:59N 22°36' E 120°17'0 0.0
2018-Jul-15 10:29N 22°36' E 120°17'0 0.0
2018-Jul-15 09:53N 22°36' E 120°17'0 0.0
2018-Jul-15 09:29N 22°36' E 120°17'0 0.0
2018-Jul-14 10:17N 22°36' E 120°17'0 0.0
2018-Jul-14 09:59N 22°36' E 120°17'0 0.0
2018-Jul-14 09:29N 22°36' E 120°17'0 0.0
2018-Jul-14 08:59N 22°36' E 120°17'0 0.0
2018-Jul-14 08:29N 22°36' E 120°17'0 0.0
2018-Jul-14 07:47N 22°36' E 120°17'0 0.0
2018-Jul-14 04:45N 22°36' E 120°17'0 0.0
2018-Jul-14 03:15N 22°36' E 120°17'0 0.0
2018-Jul-14 01:27N 22°36' E 120°17'0 0.0
2018-Jul-14 00:03N 22°36' E 120°17'0 0.0
2018-Jul-13 23:45N 22°36' E 120°17'0 0.0
2018-Jul-13 23:27N 22°36' E 120°17'0 0.1
2018-Jul-13 23:00N 22°36' E 120°17'2 3.5
2018-Jul-13 22:30N 22°37' E 120°16'4 7.8
2018-Jul-13 22:00N 22°37' E 120°12'2 4.0
2018-Jul-13 21:30N 22°37' E 120°10'0 0.7
2018-Jul-13 21:01N 22°38' E 120°10'2 4.2
2018-Jul-13 20:30N 22°36' E 120°11'4 7.6
2018-Jul-13 20:00N 22°33' E 120°13'4 8.3
2018-Jul-13 19:31N 22°29' E 120°15'4 8.8
2018-Jul-13 19:01N 22°25' E 120°16'5 9.1
2018-Jul-13 18:30N 22°20' E 120°18'4 8.5
2018-Jul-13 18:00N 22°17' E 120°21'  
2018-Jul-10 12:49N 22°15' E 120°13'1 2.9
2018-Jul-10 12:22N 22°16' E 120°13'2 2.8
2018-Jul-10 11:34N 22°18' E 120°12'0 2.9
2018-Jul-10 11:29N 22°18' E 120°12'1 2.6
2018-Jul-10 10:58N 22°20' E 120°12'1 2.4
2018-Jul-10 10:28N 22°21' E 120°11'1 2.2
2018-Jul-10 09:59N 22°22' E 120°11'1 2.2
2018-Jul-10 09:30N 22°23' E 120°10'1 2.2
2018-Jul-10 08:58N 22°24' E 120°10'1 2.2
2018-Jul-10 08:30N 22°25' E 120°10'4 7.1
2018-Jul-10 07:59N 22°28' E 120°08'511.3
2018-Jul-10 07:30N 22°34' E 120°08'5 9.9
2018-Jul-10 07:00N 22°38' E 120°10'4 9.0
2018-Jul-10 06:30N 22°38' E 120°15'3 6.3
2018-Jul-10 06:00N 22°36' E 120°17'0 0.2
2018-Jul-10 05:30N 22°36' E 120°17'0 0.0
2018-Jul-10 05:00N 22°36' E 120°17'0 0.1
2018-Jul-10 04:27N 22°36' E 120°18'0 0.1
2018-Jul-10 03:57N 22°36' E 120°17'0 0.1
2018-Jul-10 03:27N 22°36' E 120°18'0 0.0
2018-Jul-10 02:51N 22°36' E 120°18'0 0.0
2018-Jul-10 02:27N 22°36' E 120°18'0 0.0
2018-Jul-10 01:45N 22°36' E 120°18'0 0.0
2018-Jul-10 01:21N 22°36' E 120°18'0 0.1
2018-Jul-10 00:51N 22°36' E 120°17'0 0.1
2018-Jul-10 00:21N 22°36' E 120°18'0 0.0
2018-Jul-09 18:51N 22°36' E 120°18'0 0.0
2018-Jul-09 12:39N 22°36' E 120°18'0 0.0
2018-Jul-09 12:27N 22°36' E 120°18'0 0.1
2018-Jul-09 11:45N 22°36' E 120°17'0 0.2
2018-Jul-09 11:27N 22°36' E 120°18'0 0.0
2018-Jul-09 10:03N 22°36' E 120°18'0 0.0
2018-Jul-09 09:39N 22°36' E 120°18'0 0.0
2018-Jul-09 08:33N 22°36' E 120°18'0 0.0
2018-Jul-09 08:15N 22°36' E 120°18'0 0.0
2018-Jul-09 07:51N 22°36' E 120°18'0 0.0
2018-Jul-09 07:27N 22°36' E 120°18'0 0.0
2018-Jul-09 06:57N 22°36' E 120°18'0 0.0
2018-Jul-09 04:45N 22°36' E 120°18'0 0.1
2018-Jul-09 04:09N 22°36' E 120°17'0 0.3
2018-Jul-09 03:57N 22°36' E 120°18'0 0.0
2018-Jul-09 03:27N 22°36' E 120°18'0 0.0
2018-Jul-09 02:39N 22°36' E 120°18'0 0.0
2018-Jul-09 02:21N 22°36' E 120°18'0 0.0
2018-Jul-09 01:57N 22°36' E 120°18'0 0.0
2018-Jul-09 01:27N 22°36' E 120°18'0 0.0
2018-Jul-08 09:00N 22°36' E 120°18'0 0.0
2018-Jul-08 03:06N 22°36' E 120°17'0 0.6
2018-Jul-08 03:00N 22°36' E 120°18'0 0.0
2018-Jul-08 02:30N 22°36' E 120°18'0 0.0
2018-Jul-08 01:54N 22°36' E 120°18'0 0.0
2018-Jul-08 01:18N 22°36' E 120°18'0 0.0
2018-Jul-08 01:00N 22°36' E 120°18'0 0.0
2018-Jul-08 00:24N 22°36' E 120°18'0 0.0
2018-Jul-08 00:00N 22°36' E 120°18'0 0.0
2018-Jul-07 23:30N 22°36' E 120°18'0 0.0
2018-Jul-07 23:00N 22°36' E 120°18'0 0.0
2018-Jul-07 22:30N 22°36' E 120°18'0 0.0
2018-Jul-07 22:00N 22°36' E 120°18'0 0.1
2018-Jul-07 21:24N 22°36' E 120°17'0 0.1
2018-Jul-07 21:00N 22°36' E 120°18'0 0.0
2018-Jul-07 20:24N 22°36' E 120°18'0 0.0
2018-Jul-07 20:00N 22°36' E 120°18'0 0.0
2018-Jul-07 19:30N 22°36' E 120°18'0 0.0
2018-Jul-07 19:00N 22°36' E 120°18'0 0.1
2018-Jul-07 18:30N 22°36' E 120°17'0 0.1
2018-Jul-07 17:54N 22°36' E 120°18'0 0.0
2018-Jul-07 17:24N 22°36' E 120°18'0 0.0
2018-Jul-07 17:00N 22°36' E 120°18'0 0.0
2018-Jul-07 16:24N 22°36' E 120°18'0 0.1
2018-Jul-07 16:00N 22°36' E 120°17'0 0.1
2018-Jul-07 15:30N 22°36' E 120°18'0 0.0
2018-Jul-07 14:54N 22°36' E 120°18'0 0.0
2018-Jul-07 14:30N 22°36' E 120°18'0 0.0
2018-Jul-07 14:00N 22°36' E 120°18'0 0.0
2018-Jul-07 13:30N 22°36' E 120°18'0 0.1
2018-Jul-07 13:00N 22°36' E 120°17'0 0.1
2018-Jul-07 12:18N 22°36' E 120°18'0 0.0
2018-Jul-07 12:00N 22°36' E 120°18'0 0.0
2018-Jul-07 11:30N 22°36' E 120°18'0 0.0
2018-Jul-07 11:00N 22°36' E 120°18'0 0.0
2018-Jul-07 10:18N 22°36' E 120°18'0 0.0
2018-Jul-07 10:00N 22°36' E 120°18'0 0.0
2018-Jul-07 09:18N 22°36' E 120°18'0 0.0
2018-Jul-07 09:00N 22°36' E 120°18'0 0.0
2018-Jul-07 08:30N 22°36' E 120°18'0 0.0
2018-Jul-07 07:54N 22°36' E 120°18'0 0.0
2018-Jul-07 07:30N 22°36' E 120°18'0 0.0
2018-Jul-07 07:00N 22°36' E 120°18'0 0.1
2018-Jul-07 06:12N 22°36' E 120°17'0 0.3
2018-Jul-07 06:00N 22°36' E 120°18'0 0.1
2018-Jul-07 05:30N 22°36' E 120°17'0 0.1
2018-Jul-07 04:48N 22°36' E 120°18'0 0.0
2018-Jul-07 04:24N 22°36' E 120°18'0 0.0
2018-Jul-07 04:00N 22°36' E 120°18'0 0.0
2018-Jul-07 03:12N 22°36' E 120°18'0 0.0
2018-Jul-07 02:54N 22°36' E 120°18'0 0.0
2018-Jul-07 02:30N 22°36' E 120°18'0 0.0
2018-Jul-07 01:18N 22°36' E 120°17'0 0.0
2018-Jul-07 00:54N 22°36' E 120°17'0 0.1
2018-Jul-07 00:24N 22°36' E 120°18'0 0.1
2018-Jul-06 23:48N 22°36' E 120°17'0 0.2
2018-Jul-06 23:30N 22°36' E 120°18'0 0.2
2018-Jul-06 23:00N 22°36' E 120°17'2 3.6
2018-Jul-06 22:30N 22°37' E 120°16'4 7.7
2018-Jul-06 22:00N 22°38' E 120°12'4 7.2
2018-Jul-06 21:30N 22°34' E 120°13'5 8.8
2018-Jul-06 20:58N 22°29' E 120°14'4 8.6
2018-Jul-06 20:30N 22°26' E 120°16'4 8.7
2018-Jul-06 20:00N 22°22' E 120°18'4 8.3
2018-Jul-06 19:30N 22°18' E 120°20'  
Track history (hours):
 
Tides and Currents Weather Stations Pressure Air Temp Water Temp Dewpoint Dewpoint Depression Visibility Wind Speed Wind Dir Waves Ship Positions

Nation Prosperity II

Last reported at 2018-Jul-15 17:06 UTC. Time now 2018-Jul-20 16:41 UTC.
Position N 22°14' E 120°24'.

Length 97 m; draft 7.7 m.

Type: Ship. MMSI: 416424000.

Date/timePositionNaut miles runAvg speedWind from/ knotsBaromVisibWave heightAir tempDewpointWater temp
2018-Jul-15 17:06N 22°14' E 120°24'211.7
2018-Jul-15 16:53N 22°16' E 120°22'411.7
2018-Jul-15 16:30N 22°19' E 120°19'611.1
2018-Jul-15 16:00N 22°24' E 120°16'611.2
2018-Jul-15 15:30N 22°29' E 120°13'5 9.4
2018-Jul-15 14:59N 22°34' E 120°12'4 9.0
2018-Jul-15 14:30N 22°38' E 120°13'4 8.5
2018-Jul-15 14:00N 22°36' E 120°17'1 1.5
2018-Jul-15 13:29N 22°36' E 120°17'0 0.0
2018-Jul-15 13:00N 22°36' E 120°17'0 0.0
2018-Jul-15 12:30N 22°36' E 120°17'0 0.0
2018-Jul-15 12:00N 22°36' E 120°17'0 0.0
2018-Jul-15 11:30N 22°36' E 120°17'0 0.0
2018-Jul-15 10:59N 22°36' E 120°17'0 0.0
2018-Jul-15 10:29N 22°36' E 120°17'0 0.0
2018-Jul-15 09:53N 22°36' E 120°17'0 0.0
2018-Jul-15 09:29N 22°36' E 120°17'0 0.0
2018-Jul-14 10:17N 22°36' E 120°17'0 0.0
2018-Jul-14 09:59N 22°36' E 120°17'0 0.0
2018-Jul-14 09:29N 22°36' E 120°17'0 0.0
2018-Jul-14 08:59N 22°36' E 120°17'0 0.0
2018-Jul-14 08:29N 22°36' E 120°17'0 0.0
2018-Jul-14 07:47N 22°36' E 120°17'0 0.0
2018-Jul-14 04:45N 22°36' E 120°17'0 0.0
2018-Jul-14 03:15N 22°36' E 120°17'0 0.0
2018-Jul-14 01:27N 22°36' E 120°17'0 0.0
2018-Jul-14 00:03N 22°36' E 120°17'0 0.0
2018-Jul-13 23:45N 22°36' E 120°17'0 0.0
2018-Jul-13 23:27N 22°36' E 120°17'0 0.1
2018-Jul-13 23:00N 22°36' E 120°17'2 3.5
2018-Jul-13 22:30N 22°37' E 120°16'4 7.8
2018-Jul-13 22:00N 22°37' E 120°12'2 4.0
2018-Jul-13 21:30N 22°37' E 120°10'0 0.7
2018-Jul-13 21:01N 22°38' E 120°10'2 4.2
2018-Jul-13 20:30N 22°36' E 120°11'4 7.6
2018-Jul-13 20:00N 22°33' E 120°13'4 8.3
2018-Jul-13 19:31N 22°29' E 120°15'4 8.8
2018-Jul-13 19:01N 22°25' E 120°16'5 9.1
2018-Jul-13 18:30N 22°20' E 120°18'4 8.5
2018-Jul-13 18:00N 22°17' E 120°21'  
2018-Jul-10 12:49N 22°15' E 120°13'1 2.9
2018-Jul-10 12:22N 22°16' E 120°13'2 2.8
2018-Jul-10 11:34N 22°18' E 120°12'0 2.9
2018-Jul-10 11:29N 22°18' E 120°12'1 2.6
2018-Jul-10 10:58N 22°20' E 120°12'1 2.4
2018-Jul-10 10:28N 22°21' E 120°11'1 2.2
2018-Jul-10 09:59N 22°22' E 120°11'1 2.2
2018-Jul-10 09:30N 22°23' E 120°10'1 2.2
2018-Jul-10 08:58N 22°24' E 120°10'1 2.2
2018-Jul-10 08:30N 22°25' E 120°10'4 7.1
2018-Jul-10 07:59N 22°28' E 120°08'511.3
2018-Jul-10 07:30N 22°34' E 120°08'5 9.9
2018-Jul-10 07:00N 22°38' E 120°10'4 9.0
2018-Jul-10 06:30N 22°38' E 120°15'3 6.3
2018-Jul-10 06:00N 22°36' E 120°17'0 0.2
2018-Jul-10 05:30N 22°36' E 120°17'0 0.0
2018-Jul-10 05:00N 22°36' E 120°17'0 0.1
2018-Jul-10 04:27N 22°36' E 120°18'0 0.1
2018-Jul-10 03:57N 22°36' E 120°17'0 0.1
2018-Jul-10 03:27N 22°36' E 120°18'0 0.0
2018-Jul-10 02:51N 22°36' E 120°18'0 0.0
2018-Jul-10 02:27N 22°36' E 120°18'0 0.0
2018-Jul-10 01:45N 22°36' E 120°18'0 0.0
2018-Jul-10 01:21N 22°36' E 120°18'0 0.1
2018-Jul-10 00:51N 22°36' E 120°17'0 0.1
2018-Jul-10 00:21N 22°36' E 120°18'0 0.0
2018-Jul-09 18:51N 22°36' E 120°18'0 0.0
2018-Jul-09 12:39N 22°36' E 120°18'0 0.0
2018-Jul-09 12:27N 22°36' E 120°18'0 0.1
2018-Jul-09 11:45N 22°36' E 120°17'0 0.2
2018-Jul-09 11:27N 22°36' E 120°18'0 0.0
2018-Jul-09 10:03N 22°36' E 120°18'0 0.0
2018-Jul-09 09:39N 22°36' E 120°18'0 0.0
2018-Jul-09 08:33N 22°36' E 120°18'0 0.0
2018-Jul-09 08:15N 22°36' E 120°18'0 0.0
2018-Jul-09 07:51N 22°36' E 120°18'0 0.0
2018-Jul-09 07:27N 22°36' E 120°18'0 0.0
2018-Jul-09 06:57N 22°36' E 120°18'0 0.0
2018-Jul-09 04:45N 22°36' E 120°18'0 0.1
2018-Jul-09 04:09N 22°36' E 120°17'0 0.3
2018-Jul-09 03:57N 22°36' E 120°18'0 0.0
2018-Jul-09 03:27N 22°36' E 120°18'0 0.0
2018-Jul-09 02:39N 22°36' E 120°18'0 0.0
2018-Jul-09 02:21N 22°36' E 120°18'0 0.0
2018-Jul-09 01:57N 22°36' E 120°18'0 0.0
2018-Jul-09 01:27N 22°36' E 120°18'0 0.0
2018-Jul-08 09:00N 22°36' E 120°18'0 0.0
2018-Jul-08 03:06N 22°36' E 120°17'0 0.6
2018-Jul-08 03:00N 22°36' E 120°18'0 0.0
2018-Jul-08 02:30N 22°36' E 120°18'0 0.0
2018-Jul-08 01:54N 22°36' E 120°18'0 0.0
2018-Jul-08 01:18N 22°36' E 120°18'0 0.0
2018-Jul-08 01:00N 22°36' E 120°18'0 0.0
2018-Jul-08 00:24N 22°36' E 120°18'0 0.0
2018-Jul-08 00:00N 22°36' E 120°18'0 0.0
2018-Jul-07 23:30N 22°36' E 120°18'0 0.0
2018-Jul-07 23:00N 22°36' E 120°18'0 0.0
2018-Jul-07 22:30N 22°36' E 120°18'0 0.0
2018-Jul-07 22:00N 22°36' E 120°18'0 0.1
2018-Jul-07 21:24N 22°36' E 120°17'0 0.1
2018-Jul-07 21:00N 22°36' E 120°18'0 0.0
2018-Jul-07 20:24N 22°36' E 120°18'0 0.0
2018-Jul-07 20:00N 22°36' E 120°18'0 0.0
2018-Jul-07 19:30N 22°36' E 120°18'0 0.0
2018-Jul-07 19:00N 22°36' E 120°18'0 0.1
2018-Jul-07 18:30N 22°36' E 120°17'0 0.1
2018-Jul-07 17:54N 22°36' E 120°18'0 0.0
2018-Jul-07 17:24N 22°36' E 120°18'0 0.0
2018-Jul-07 17:00N 22°36' E 120°18'0 0.0
2018-Jul-07 16:24N 22°36' E 120°18'0 0.1
2018-Jul-07 16:00N 22°36' E 120°17'0 0.1
2018-Jul-07 15:30N 22°36' E 120°18'0 0.0
2018-Jul-07 14:54N 22°36' E 120°18'0 0.0
2018-Jul-07 14:30N 22°36' E 120°18'0 0.0
2018-Jul-07 14:00N 22°36' E 120°18'0 0.0
2018-Jul-07 13:30N 22°36' E 120°18'0 0.1
2018-Jul-07 13:00N 22°36' E 120°17'0 0.1
2018-Jul-07 12:18N 22°36' E 120°18'0 0.0
2018-Jul-07 12:00N 22°36' E 120°18'0 0.0
2018-Jul-07 11:30N 22°36' E 120°18'0 0.0
2018-Jul-07 11:00N 22°36' E 120°18'0 0.0
2018-Jul-07 10:18N 22°36' E 120°18'0 0.0
2018-Jul-07 10:00N 22°36' E 120°18'0 0.0
2018-Jul-07 09:18N 22°36' E 120°18'0 0.0
2018-Jul-07 09:00N 22°36' E 120°18'0 0.0
2018-Jul-07 08:30N 22°36' E 120°18'0 0.0
2018-Jul-07 07:54N 22°36' E 120°18'0 0.0
2018-Jul-07 07:30N 22°36' E 120°18'0 0.0
2018-Jul-07 07:00N 22°36' E 120°18'0 0.1
2018-Jul-07 06:12N 22°36' E 120°17'0 0.3
2018-Jul-07 06:00N 22°36' E 120°18'0 0.1
2018-Jul-07 05:30N 22°36' E 120°17'0 0.1
2018-Jul-07 04:48N 22°36' E 120°18'0 0.0
2018-Jul-07 04:24N 22°36' E 120°18'0 0.0
2018-Jul-07 04:00N 22°36' E 120°18'0 0.0
2018-Jul-07 03:12N 22°36' E 120°18'0 0.0
2018-Jul-07 02:54N 22°36' E 120°18'0 0.0
2018-Jul-07 02:30N 22°36' E 120°18'0 0.0
2018-Jul-07 01:18N 22°36' E 120°17'0 0.0
2018-Jul-07 00:54N 22°36' E 120°17'0 0.1
2018-Jul-07 00:24N 22°36' E 120°18'0 0.1
2018-Jul-06 23:48N 22°36' E 120°17'0 0.2
2018-Jul-06 23:30N 22°36' E 120°18'0 0.2
2018-Jul-06 23:00N 22°36' E 120°17'2 3.6
2018-Jul-06 22:30N 22°37' E 120°16'4 7.7
2018-Jul-06 22:00N 22°38' E 120°12'4 7.2
2018-Jul-06 21:30N 22°34' E 120°13'5 8.8
2018-Jul-06 20:58N 22°29' E 120°14'4 8.6
2018-Jul-06 20:30N 22°26' E 120°16'4 8.7
2018-Jul-06 20:00N 22°22' E 120°18'4 8.3
2018-Jul-06 19:30N 22°18' E 120°20'  

Dump ship's entire track history